sensor_id;sensor_type;location;lat;lon;timestamp;temperature;humidity
15184;DHT22;7693;49.266;7.104;2023-02-01T05:55:04;5.30;99.90
15184;DHT22;7693;49.266;7.104;2023-02-01T05:57:30;5.30;99.90
15184;DHT22;7693;49.266;7.104;2023-02-01T05:59:56;5.30;99.90
15184;DHT22;7693;49.266;7.104;2023-02-01T06:02:21;5.30;99.90
15184;DHT22;7693;49.266;7.104;2023-02-01T06:04:49;5.30;99.90
15184;DHT22;7693;49.266;7.104;2023-02-01T06:07:15;5.30;99.90
15184;DHT22;7693;49.266;7.104;2023-02-01T06:09:40;5.40;99.90
15184;DHT22;7693;49.266;7.104;2023-02-01T06:12:06;5.40;99.90
15184;DHT22;7693;49.266;7.104;2023-02-01T06:14:32;5.40;99.90
15184;DHT22;7693;49.266;7.104;2023-02-01T06:16:57;5.40;99.90
15184;DHT22;7693;49.266;7.104;2023-02-01T06:19:23;5.50;99.90
15184;DHT22;7693;49.266;7.104;2023-02-01T06:21:49;5.50;99.90
15184;DHT22;7693;49.266;7.104;2023-02-01T06:24:14;5.50;99.90
15184;DHT22;7693;49.266;7.104;2023-02-01T06:26:40;5.50;99.90
15184;DHT22;7693;49.266;7.104;2023-02-01T06:29:15;5.50;99.90
15184;DHT22;7693;49.266;7.104;2023-02-01T06:31:40;5.50;99.90
15184;DHT22;7693;49.266;7.104;2023-02-01T06:34:08;5.60;99.90
15184;DHT22;7693;49.266;7.104;2023-02-01T06:36:33;5.50;99.90
15184;DHT22;7693;49.266;7.104;2023-02-01T06:38:59;5.60;99.90
15184;DHT22;7693;49.266;7.104;2023-02-01T06:41:25;5.60;99.90
15184;DHT22;7693;49.266;7.104;2023-02-01T06:43:51;5.60;99.90
15184;DHT22;7693;49.266;7.104;2023-02-01T06:46:17;5.60;99.90
15184;DHT22;7693;49.266;7.104;2023-02-01T06:48:43;5.60;99.90
15184;DHT22;7693;49.266;7.104;2023-02-01T06:51:25;5.60;99.90
15184;DHT22;7693;49.266;7.104;2023-02-01T06:53:51;5.60;99.90
15184;DHT22;7693;49.266;7.104;2023-02-01T06:56:17;5.60;99.90
15184;DHT22;7693;49.266;7.104;2023-02-01T06:58:44;5.60;99.90
15184;DHT22;7693;49.266;7.104;2023-02-01T07:01:10;5.60;99.90
15184;DHT22;7693;49.266;7.104;2023-02-01T07:03:37;5.60;99.90
15184;DHT22;7693;49.266;7.104;2023-02-01T07:06:03;5.60;99.90
15184;DHT22;7693;49.266;7.104;2023-02-01T07:08:31;5.60;99.90
15184;DHT22;7693;49.266;7.104;2023-02-01T07:11:00;5.60;99.90
15184;DHT22;7693;49.266;7.104;2023-02-01T07:13:26;5.60;99.90
15184;DHT22;7693;49.266;7.104;2023-02-01T07:15:51;5.60;99.90
15184;DHT22;7693;49.266;7.104;2023-02-01T07:18:17;5.50;99.90
15184;DHT22;7693;49.266;7.104;2023-02-01T07:20:43;5.50;99.90
15184;DHT22;7693;49.266;7.104;2023-02-01T07:23:11;5.50;99.90
15184;DHT22;7693;49.266;7.104;2023-02-01T07:25:36;5.50;99.90
15184;DHT22;7693;49.266;7.104;2023-02-01T07:28:02;5.50;99.90
15184;DHT22;7693;49.266;7.104;2023-02-01T07:30:28;5.50;99.90
15184;DHT22;7693;49.266;7.104;2023-02-01T07:32:54;5.50;99.90
15184;DHT22;7693;49.266;7.104;2023-02-01T07:35:19;5.50;99.90
15184;DHT22;7693;49.266;7.104;2023-02-01T07:37:45;5.50;99.90
15184;DHT22;7693;49.266;7.104;2023-02-01T07:40:11;5.50;99.90
15184;DHT22;7693;49.266;7.104;2023-02-01T07:42:37;5.50;99.90
15184;DHT22;7693;49.266;7.104;2023-02-01T07:45:03;5.50;99.90
15184;DHT22;7693;49.266;7.104;2023-02-01T07:47:28;5.50;99.90
15184;DHT22;7693;49.266;7.104;2023-02-01T07:49:54;5.50;99.90
15184;DHT22;7693;49.266;7.104;2023-02-01T07:52:20;5.50;99.90
15184;DHT22;7693;49.266;7.104;2023-02-01T07:54:45;5.50;99.90
15184;DHT22;7693;49.266;7.104;2023-02-01T07:57:11;5.50;99.90
15184;DHT22;7693;49.266;7.104;2023-02-01T07:59:37;5.40;99.90
15184;DHT22;7693;49.266;7.104;2023-02-01T08:02:22;5.40;99.90
15184;DHT22;7693;49.266;7.104;2023-02-01T08:04:48;5.40;99.90
15184;DHT22;7693;49.266;7.104;2023-02-01T08:07:14;5.40;99.90
15184;DHT22;7693;49.266;7.104;2023-02-01T08:09:40;5.50;99.90
15184;DHT22;7693;49.266;7.104;2023-02-01T08:12:06;5.50;99.90
15184;DHT22;7693;49.266;7.104;2023-02-01T08:14:31;5.50;99.90
15184;DHT22;7693;49.266;7.104;2023-02-01T08:16:57;5.50;99.90
15184;DHT22;7693;49.266;7.104;2023-02-01T08:19:23;5.60;99.90
15184;DHT22;7693;49.266;7.104;2023-02-01T08:21:48;5.60;99.90
15184;DHT22;7693;49.266;7.104;2023-02-01T08:24:14;5.60;99.90
15184;DHT22;7693;49.266;7.104;2023-02-01T08:26:39;5.70;99.90
15184;DHT22;7693;49.266;7.104;2023-02-01T08:29:07;5.70;99.90
15184;DHT22;7693;49.266;7.104;2023-02-01T08:31:33;5.70;99.90
15184;DHT22;7693;49.266;7.104;2023-02-01T08:34:01;5.70;99.90
15184;DHT22;7693;49.266;7.104;2023-02-01T08:36:30;5.70;99.90
15184;DHT22;7693;49.266;7.104;2023-02-01T08:38:56;5.70;99.90
15184;DHT22;7693;49.266;7.104;2023-02-01T08:41:25;5.70;99.90
15184;DHT22;7693;49.266;7.104;2023-02-01T08:43:51;5.70;99.90
15184;DHT22;7693;49.266;7.104;2023-02-01T08:46:18;5.80;99.90
15184;DHT22;7693;49.266;7.104;2023-02-01T08:48:46;5.80;99.90
15184;DHT22;7693;49.266;7.104;2023-02-01T08:51:13;5.80;99.90
15184;DHT22;7693;49.266;7.104;2023-02-01T08:53:39;5.80;99.90
15184;DHT22;7693;49.266;7.104;2023-02-01T08:56:07;5.80;99.90
15184;DHT22;7693;49.266;7.104;2023-02-01T08:58:33;5.80;99.90
15184;DHT22;7693;49.266;7.104;2023-02-01T13:44:46;6.50;99.90
15184;DHT22;7693;49.266;7.104;2023-02-01T13:47:25;6.60;99.90
15184;DHT22;7693;49.266;7.104;2023-02-01T13:49:53;6.60;99.90
15184;DHT22;7693;49.266;7.104;2023-02-01T13:52:38;6.60;99.90
15184;DHT22;7693;49.266;7.104;2023-02-01T13:55:23;6.70;99.90
15184;DHT22;7693;49.266;7.104;2023-02-01T13:58:11;6.70;99.90
15184;DHT22;7693;49.266;7.104;2023-02-01T14:00:39;6.70;99.90
15184;DHT22;7693;49.266;7.104;2023-02-01T14:08:11;6.70;99.90
15184;DHT22;7693;49.266;7.104;2023-02-01T14:10:55;6.70;99.90
15184;DHT22;7693;49.266;7.104;2023-02-01T14:13:38;6.70;99.90
15184;DHT22;7693;49.266;7.104;2023-02-01T14:37:27;6.90;99.90
15184;DHT22;7693;49.266;7.104;2023-02-01T14:40:03;7.00;99.90
15184;DHT22;7693;49.266;7.104;2023-02-01T14:53:14;6.90;99.90
15184;DHT22;7693;49.266;7.104;2023-02-01T15:00:58;6.90;99.90
15184;DHT22;7693;49.266;7.104;2023-02-01T15:08:47;6.80;99.90
15184;DHT22;7693;49.266;7.104;2023-02-01T15:11:15;6.90;99.90
15184;DHT22;7693;49.266;7.104;2023-02-01T15:13:48;6.90;99.90
15184;DHT22;7693;49.266;7.104;2023-02-01T15:16:16;6.90;99.90
15184;DHT22;7693;49.266;7.104;2023-02-01T15:18:42;6.90;99.90
15184;DHT22;7693;49.266;7.104;2023-02-01T15:21:22;6.90;99.90
15184;DHT22;7693;49.266;7.104;2023-02-01T15:23:49;6.90;99.90
15184;DHT22;7693;49.266;7.104;2023-02-01T15:26:29;6.90;99.90
15184;DHT22;7693;49.266;7.104;2023-02-01T15:28:59;6.90;99.90
15184;DHT22;7693;49.266;7.104;2023-02-01T15:31:36;7.00;99.90
15184;DHT22;7693;49.266;7.104;2023-02-01T15:34:02;7.00;99.90
15184;DHT22;7693;49.266;7.104;2023-02-01T15:36:28;6.90;99.90
15184;DHT22;7693;49.266;7.104;2023-02-01T15:39:23;7.00;99.90
15184;DHT22;7693;49.266;7.104;2023-02-01T15:42:08;6.90;99.90
15184;DHT22;7693;49.266;7.104;2023-02-01T15:44:40;6.90;99.90
15184;DHT22;7693;49.266;7.104;2023-02-01T15:47:13;6.80;99.90
15184;DHT22;7693;49.266;7.104;2023-02-01T15:49:41;6.80;99.90
15184;DHT22;7693;49.266;7.104;2023-02-01T15:54:53;6.80;99.90
15184;DHT22;7693;49.266;7.104;2023-02-01T15:57:29;6.70;99.90
15184;DHT22;7693;49.266;7.104;2023-02-01T16:00:18;6.70;99.90
15184;DHT22;7693;49.266;7.104;2023-02-01T16:02:54;6.70;99.90
15184;DHT22;7693;49.266;7.104;2023-02-01T16:05:36;6.70;99.90
15184;DHT22;7693;49.266;7.104;2023-02-01T16:08:14;6.70;99.90
15184;DHT22;7693;49.266;7.104;2023-02-01T16:10:45;6.60;99.90
15184;DHT22;7693;49.266;7.104;2023-02-01T16:13:12;6.60;99.90
15184;DHT22;7693;49.266;7.104;2023-02-01T16:15:38;6.50;99.90
15184;DHT22;7693;49.266;7.104;2023-02-01T16:18:05;6.50;99.90
15184;DHT22;7693;49.266;7.104;2023-02-01T16:20:33;6.50;99.90
15184;DHT22;7693;49.266;7.104;2023-02-01T16:23:01;6.50;99.90
15184;DHT22;7693;49.266;7.104;2023-02-01T16:25:26;6.50;99.90
15184;DHT22;7693;49.266;7.104;2023-02-01T16:27:52;6.50;99.90
15184;DHT22;7693;49.266;7.104;2023-02-01T16:30:18;6.50;99.90
15184;DHT22;7693;49.266;7.104;2023-02-01T16:32:59;6.40;99.90
15184;DHT22;7693;49.266;7.104;2023-02-01T16:35:30;6.40;99.90
15184;DHT22;7693;49.266;7.104;2023-02-01T16:38:01;6.40;99.90
15184;DHT22;7693;49.266;7.104;2023-02-01T16:40:27;6.40;99.90
15184;DHT22;7693;49.266;7.104;2023-02-01T16:42:53;6.40;99.90
15184;DHT22;7693;49.266;7.104;2023-02-01T16:45:20;6.30;99.90
15184;DHT22;7693;49.266;7.104;2023-02-01T16:47:49;6.30;99.90
15184;DHT22;7693;49.266;7.104;2023-02-01T16:50:20;6.30;99.90
15184;DHT22;7693;49.266;7.104;2023-02-01T16:52:46;6.30;99.90
15184;DHT22;7693;49.266;7.104;2023-02-01T16:55:14;6.30;99.90
15184;DHT22;7693;49.266;7.104;2023-02-01T16:57:41;6.30;99.90
15184;DHT22;7693;49.266;7.104;2023-02-01T17:00:08;6.30;99.90
15184;DHT22;7693;49.266;7.104;2023-02-01T17:02:34;6.30;99.90
15184;DHT22;7693;49.266;7.104;2023-02-01T17:05:00;6.30;99.90
15184;DHT22;7693;49.266;7.104;2023-02-01T17:07:26;6.30;99.90
15184;DHT22;7693;49.266;7.104;2023-02-01T17:09:52;6.30;99.90
15184;DHT22;7693;49.266;7.104;2023-02-01T17:12:29;6.30;99.90
15184;DHT22;7693;49.266;7.104;2023-02-01T17:14:56;6.20;99.90
15184;DHT22;7693;49.266;7.104;2023-02-01T17:17:23;6.20;99.90
15184;DHT22;7693;49.266;7.104;2023-02-01T17:19:51;6.20;99.90
15184;DHT22;7693;49.266;7.104;2023-02-01T17:22:22;6.20;99.90
15184;DHT22;7693;49.266;7.104;2023-02-01T17:24:48;6.20;99.90
15184;DHT22;7693;49.266;7.104;2023-02-01T17:27:16;6.30;99.90
15184;DHT22;7693;49.266;7.104;2023-02-01T17:29:42;6.20;99.90
15184;DHT22;7693;49.266;7.104;2023-02-01T17:32:16;6.30;99.90
15184;DHT22;7693;49.266;7.104;2023-02-01T17:34:42;6.30;99.90
15184;DHT22;7693;49.266;7.104;2023-02-01T17:37:39;6.30;99.90
15184;DHT22;7693;49.266;7.104;2023-02-01T17:40:04;6.20;99.90
15184;DHT22;7693;49.266;7.104;2023-02-01T17:42:29;6.20;99.90
15184;DHT22;7693;49.266;7.104;2023-02-01T19:07:22;6.00;99.90
15184;DHT22;7693;49.266;7.104;2023-02-01T19:09:48;6.10;99.90
15184;DHT22;7693;49.266;7.104;2023-02-01T19:12:13;6.10;99.90
15184;DHT22;7693;49.266;7.104;2023-02-01T19:14:39;6.10;99.90
15184;DHT22;7693;49.266;7.104;2023-02-01T19:17:05;6.10;99.90
15184;DHT22;7693;49.266;7.104;2023-02-01T19:19:31;6.20;99.90
15184;DHT22;7693;49.266;7.104;2023-02-01T19:21:56;6.20;99.90
15184;DHT22;7693;49.266;7.104;2023-02-01T19:24:22;6.20;99.90
15184;DHT22;7693;49.266;7.104;2023-02-01T19:26:52;6.30;99.90
15184;DHT22;7693;49.266;7.104;2023-02-01T19:29:18;6.30;99.90
15184;DHT22;7693;49.266;7.104;2023-02-01T19:31:43;6.30;99.90
15184;DHT22;7693;49.266;7.104;2023-02-01T19:34:12;6.30;99.90
15184;DHT22;7693;49.266;7.104;2023-02-01T19:36:38;6.30;99.90
15184;DHT22;7693;49.266;7.104;2023-02-01T19:39:05;6.30;99.90
15184;DHT22;7693;49.266;7.104;2023-02-01T19:41:31;6.30;99.90
15184;DHT22;7693;49.266;7.104;2023-02-01T19:43:56;6.30;99.90
15184;DHT22;7693;49.266;7.104;2023-02-01T19:46:23;6.30;99.90
15184;DHT22;7693;49.266;7.104;2023-02-01T19:48:49;6.40;99.90
15184;DHT22;7693;49.266;7.104;2023-02-01T19:51:15;6.30;99.90
15184;DHT22;7693;49.266;7.104;2023-02-01T19:53:41;6.40;99.90
15184;DHT22;7693;49.266;7.104;2023-02-01T19:56:06;6.40;99.90
15184;DHT22;7693;49.266;7.104;2023-02-01T19:58:32;6.40;99.90
15184;DHT22;7693;49.266;7.104;2023-02-01T20:01:02;6.40;99.90
15184;DHT22;7693;49.266;7.104;2023-02-01T20:03:27;6.40;99.90
15184;DHT22;7693;49.266;7.104;2023-02-01T20:05:55;6.50;99.90
15184;DHT22;7693;49.266;7.104;2023-02-01T20:08:21;6.50;99.90
15184;DHT22;7693;49.266;7.104;2023-02-01T20:10:47;6.50;99.90
15184;DHT22;7693;49.266;7.104;2023-02-01T20:13:13;6.50;99.90
15184;DHT22;7693;49.266;7.104;2023-02-01T20:15:39;6.50;99.90
15184;DHT22;7693;49.266;7.104;2023-02-01T20:18:07;6.50;99.90
15184;DHT22;7693;49.266;7.104;2023-02-01T20:20:33;6.50;99.90
15184;DHT22;7693;49.266;7.104;2023-02-01T20:22:59;6.50;99.90
15184;DHT22;7693;49.266;7.104;2023-02-01T20:25:24;6.50;99.90
15184;DHT22;7693;49.266;7.104;2023-02-01T20:27:50;6.50;99.90
15184;DHT22;7693;49.266;7.104;2023-02-01T20:30:17;6.50;99.90
15184;DHT22;7693;49.266;7.104;2023-02-01T20:32:45;6.50;99.90
15184;DHT22;7693;49.266;7.104;2023-02-01T20:35:12;6.50;99.90
15184;DHT22;7693;49.266;7.104;2023-02-01T20:37:38;6.50;99.90
15184;DHT22;7693;49.266;7.104;2023-02-01T20:40:04;6.50;99.90
15184;DHT22;7693;49.266;7.104;2023-02-01T20:42:30;6.50;99.90
15184;DHT22;7693;49.266;7.104;2023-02-01T20:44:58;6.50;99.90
15184;DHT22;7693;49.266;7.104;2023-02-01T20:47:24;6.50;99.90
15184;DHT22;7693;49.266;7.104;2023-02-01T20:49:50;6.50;99.90
15184;DHT22;7693;49.266;7.104;2023-02-01T20:52:15;6.50;99.90
15184;DHT22;7693;49.266;7.104;2023-02-01T20:54:41;6.50;99.90
15184;DHT22;7693;49.266;7.104;2023-02-01T20:57:07;6.50;99.90
15184;DHT22;7693;49.266;7.104;2023-02-01T20:59:32;6.50;99.90
15184;DHT22;7693;49.266;7.104;2023-02-01T21:01:58;6.50;99.90
15184;DHT22;7693;49.266;7.104;2023-02-01T21:04:25;6.50;99.90
15184;DHT22;7693;49.266;7.104;2023-02-01T21:06:53;6.50;99.90
15184;DHT22;7693;49.266;7.104;2023-02-01T21:09:18;6.40;99.90
15184;DHT22;7693;49.266;7.104;2023-02-01T21:11:44;6.40;99.90
15184;DHT22;7693;49.266;7.104;2023-02-01T21:14:10;6.40;99.90
15184;DHT22;7693;49.266;7.104;2023-02-01T21:16:36;6.40;99.90
15184;DHT22;7693;49.266;7.104;2023-02-01T21:19:02;6.40;99.90
15184;DHT22;7693;49.266;7.104;2023-02-01T21:21:28;6.40;99.90
15184;DHT22;7693;49.266;7.104;2023-02-01T21:23:57;6.40;99.90
15184;DHT22;7693;49.266;7.104;2023-02-01T21:26:25;6.40;99.90
15184;DHT22;7693;49.266;7.104;2023-02-01T21:28:52;6.40;99.90
15184;DHT22;7693;49.266;7.104;2023-02-01T21:31:18;6.40;99.90
15184;DHT22;7693;49.266;7.104;2023-02-01T21:33:47;6.30;99.90
15184;DHT22;7693;49.266;7.104;2023-02-01T21:36:14;6.30;99.90
15184;DHT22;7693;49.266;7.104;2023-02-01T21:38:51;6.40;99.90
15184;DHT22;7693;49.266;7.104;2023-02-01T21:41:23;6.40;99.90
15184;DHT22;7693;49.266;7.104;2023-02-01T21:44:08;6.30;99.90
15184;DHT22;7693;49.266;7.104;2023-02-01T21:46:34;6.30;99.90
15184;DHT22;7693;49.266;7.104;2023-02-01T21:48:59;6.40;99.90
15184;DHT22;7693;49.266;7.104;2023-02-01T21:51:26;6.30;99.90
15184;DHT22;7693;49.266;7.104;2023-02-01T21:53:51;6.40;99.90
15184;DHT22;7693;49.266;7.104;2023-02-01T21:56:17;6.40;99.90
15184;DHT22;7693;49.266;7.104;2023-02-01T21:58:42;6.40;99.90
15184;DHT22;7693;49.266;7.104;2023-02-01T22:01:08;6.30;99.90
15184;DHT22;7693;49.266;7.104;2023-02-01T22:03:33;6.40;99.90
15184;DHT22;7693;49.266;7.104;2023-02-01T22:05:59;6.40;99.90
15184;DHT22;7693;49.266;7.104;2023-02-01T22:08:25;6.40;99.90
15184;DHT22;7693;49.266;7.104;2023-02-01T22:10:50;6.30;99.90
15184;DHT22;7693;49.266;7.104;2023-02-01T22:13:16;6.40;99.90
15184;DHT22;7693;49.266;7.104;2023-02-01T22:15:42;6.40;99.90
15184;DHT22;7693;49.266;7.104;2023-02-01T22:18:07;6.40;99.90
15184;DHT22;7693;49.266;7.104;2023-02-01T22:20:33;6.30;99.90
15184;DHT22;7693;49.266;7.104;2023-02-01T22:22:59;6.40;99.90
15184;DHT22;7693;49.266;7.104;2023-02-01T22:25:25;6.40;99.90
15184;DHT22;7693;49.266;7.104;2023-02-01T22:27:53;6.40;99.90
15184;DHT22;7693;49.266;7.104;2023-02-01T22:30:19;6.40;99.90
15184;DHT22;7693;49.266;7.104;2023-02-01T22:32:45;6.40;99.90
15184;DHT22;7693;49.266;7.104;2023-02-01T22:35:10;6.40;99.90
15184;DHT22;7693;49.266;7.104;2023-02-01T22:37:36;6.40;99.90
15184;DHT22;7693;49.266;7.104;2023-02-01T22:40:02;6.40;99.90
15184;DHT22;7693;49.266;7.104;2023-02-01T22:42:29;6.40;99.90
15184;DHT22;7693;49.266;7.104;2023-02-01T22:44:55;6.40;99.90
15184;DHT22;7693;49.266;7.104;2023-02-01T22:47:20;6.40;99.90
15184;DHT22;7693;49.266;7.104;2023-02-01T22:49:46;6.40;99.90
15184;DHT22;7693;49.266;7.104;2023-02-01T22:52:11;6.50;99.90
15184;DHT22;7693;49.266;7.104;2023-02-01T22:54:37;6.40;99.90
15184;DHT22;7693;49.266;7.104;2023-02-01T22:57:04;6.40;99.90
15184;DHT22;7693;49.266;7.104;2023-02-01T22:59:30;6.40;99.90
15184;DHT22;7693;49.266;7.104;2023-02-01T23:01:55;6.40;99.90
15184;DHT22;7693;49.266;7.104;2023-02-01T23:04:21;6.50;99.90
15184;DHT22;7693;49.266;7.104;2023-02-01T23:06:50;6.40;99.90
15184;DHT22;7693;49.266;7.104;2023-02-01T23:09:23;6.50;99.90
